sensor_id;sensor_type;location;lat;lon;timestamp;temperature;humidity
45643;DHT22;31358;46.008;11.144;2023-12-20T00:00:52;4.10;99.90
45643;DHT22;31358;46.008;11.144;2023-12-20T00:03:18;4.20;99.90
45643;DHT22;31358;46.008;11.144;2023-12-20T00:05:43;4.10;99.90
45643;DHT22;31358;46.008;11.144;2023-12-20T00:08:09;4.20;99.90
45643;DHT22;31358;46.008;11.144;2023-12-20T00:10:35;4.20;99.90
45643;DHT22;31358;46.008;11.144;2023-12-20T00:13:01;4.20;99.90
45643;DHT22;31358;46.008;11.144;2023-12-20T00:15:26;4.20;99.90
45643;DHT22;31358;46.008;11.144;2023-12-20T00:17:52;4.00;99.90
45643;DHT22;31358;46.008;11.144;2023-12-20T00:20:18;4.30;99.90
45643;DHT22;31358;46.008;11.144;2023-12-20T00:22:44;4.20;99.90
45643;DHT22;31358;46.008;11.144;2023-12-20T00:25:09;4.30;99.90
45643;DHT22;31358;46.008;11.144;2023-12-20T00:27:35;4.40;99.90
45643;DHT22;31358;46.008;11.144;2023-12-20T00:30:01;4.40;99.90
45643;DHT22;31358;46.008;11.144;2023-12-20T00:32:26;4.30;99.90
45643;DHT22;31358;46.008;11.144;2023-12-20T00:34:52;4.00;99.90
45643;DHT22;31358;46.008;11.144;2023-12-20T00:37:18;3.70;99.90
45643;DHT22;31358;46.008;11.144;2023-12-20T00:39:43;3.90;99.90
45643;DHT22;31358;46.008;11.144;2023-12-20T00:42:09;3.90;99.90
45643;DHT22;31358;46.008;11.144;2023-12-20T00:44:35;4.00;99.90
45643;DHT22;31358;46.008;11.144;2023-12-20T00:47:00;4.20;99.90
45643;DHT22;31358;46.008;11.144;2023-12-20T00:49:26;4.20;99.90
45643;DHT22;31358;46.008;11.144;2023-12-20T00:51:52;4.30;99.90
45643;DHT22;31358;46.008;11.144;2023-12-20T00:54:18;4.30;99.90
45643;DHT22;31358;46.008;11.144;2023-12-20T00:56:44;4.30;99.90
45643;DHT22;31358;46.008;11.144;2023-12-20T00:59:09;4.40;99.90
45643;DHT22;31358;46.008;11.144;2023-12-20T01:01:36;4.40;99.90
45643;DHT22;31358;46.008;11.144;2023-12-20T01:04:01;4.40;99.90
45643;DHT22;31358;46.008;11.144;2023-12-20T01:06:27;4.30;99.90
45643;DHT22;31358;46.008;11.144;2023-12-20T01:08:53;4.30;99.90
45643;DHT22;31358;46.008;11.144;2023-12-20T01:11:19;4.10;99.90
45643;DHT22;31358;46.008;11.144;2023-12-20T01:13:44;4.10;99.90
45643;DHT22;31358;46.008;11.144;2023-12-20T01:16:11;4.00;99.90
45643;DHT22;31358;46.008;11.144;2023-12-20T01:18:37;3.90;99.90
45643;DHT22;31358;46.008;11.144;2023-12-20T01:21:04;3.80;99.90
45643;DHT22;31358;46.008;11.144;2023-12-20T01:23:30;4.00;99.90
45643;DHT22;31358;46.008;11.144;2023-12-20T01:25:56;3.80;99.90
45643;DHT22;31358;46.008;11.144;2023-12-20T01:28:22;3.70;99.90
45643;DHT22;31358;46.008;11.144;2023-12-20T01:30:47;3.90;99.90
45643;DHT22;31358;46.008;11.144;2023-12-20T01:33:13;4.10;99.90
45643;DHT22;31358;46.008;11.144;2023-12-20T01:35:39;4.20;99.90
45643;DHT22;31358;46.008;11.144;2023-12-20T01:38:05;3.90;99.90
45643;DHT22;31358;46.008;11.144;2023-12-20T01:40:30;3.70;99.90
45643;DHT22;31358;46.008;11.144;2023-12-20T01:43:00;3.50;99.90
45643;DHT22;31358;46.008;11.144;2023-12-20T01:45:26;3.60;99.90
45643;DHT22;31358;46.008;11.144;2023-12-20T01:47:53;3.50;99.90
45643;DHT22;31358;46.008;11.144;2023-12-20T01:50:19;4.00;99.90
45643;DHT22;31358;46.008;11.144;2023-12-20T01:52:45;3.90;99.90
45643;DHT22;31358;46.008;11.144;2023-12-20T01:55:11;3.80;99.90
45643;DHT22;31358;46.008;11.144;2023-12-20T01:57:41;3.70;99.90
45643;DHT22;31358;46.008;11.144;2023-12-20T02:00:09;3.40;99.90
45643;DHT22;31358;46.008;11.144;2023-12-20T02:02:39;3.40;99.90
45643;DHT22;31358;46.008;11.144;2023-12-20T02:05:08;3.90;99.90
45643;DHT22;31358;46.008;11.144;2023-12-20T02:07:34;4.10;99.90
45643;DHT22;31358;46.008;11.144;2023-12-20T02:10:01;3.80;99.90
45643;DHT22;31358;46.008;11.144;2023-12-20T02:12:27;3.80;99.90
45643;DHT22;31358;46.008;11.144;2023-12-20T02:14:52;4.00;99.90
45643;DHT22;31358;46.008;11.144;2023-12-20T02:17:19;3.90;99.90
45643;DHT22;31358;46.008;11.144;2023-12-20T02:19:45;3.70;99.90
45643;DHT22;31358;46.008;11.144;2023-12-20T02:22:11;4.10;99.90
45643;DHT22;31358;46.008;11.144;2023-12-20T02:24:38;4.10;99.90
45643;DHT22;31358;46.008;11.144;2023-12-20T02:27:05;3.60;99.90
45643;DHT22;31358;46.008;11.144;2023-12-20T02:29:33;3.40;99.90
45643;DHT22;31358;46.008;11.144;2023-12-20T02:31:58;3.10;99.90
45643;DHT22;31358;46.008;11.144;2023-12-20T02:34:24;3.30;99.90
45643;DHT22;31358;46.008;11.144;2023-12-20T02:36:50;3.70;99.90
45643;DHT22;31358;46.008;11.144;2023-12-20T02:39:16;3.90;99.90
45643;DHT22;31358;46.008;11.144;2023-12-20T02:41:42;4.00;99.90
45643;DHT22;31358;46.008;11.144;2023-12-20T02:44:07;4.30;99.90
45643;DHT22;31358;46.008;11.144;2023-12-20T02:46:33;4.50;99.90
45643;DHT22;31358;46.008;11.144;2023-12-20T02:48:59;4.20;99.90
45643;DHT22;31358;46.008;11.144;2023-12-20T02:51:24;4.20;99.90
45643;DHT22;31358;46.008;11.144;2023-12-20T02:53:50;4.20;99.90
45643;DHT22;31358;46.008;11.144;2023-12-20T02:56:15;4.20;99.90
45643;DHT22;31358;46.008;11.144;2023-12-20T02:58:41;4.00;99.90
45643;DHT22;31358;46.008;11.144;2023-12-20T03:01:07;4.30;99.90
45643;DHT22;31358;46.008;11.144;2023-12-20T03:03:33;4.40;99.90
45643;DHT22;31358;46.008;11.144;2023-12-20T03:05:59;4.60;99.90
45643;DHT22;31358;46.008;11.144;2023-12-20T03:08:25;4.60;99.90
45643;DHT22;31358;46.008;11.144;2023-12-20T03:10:51;4.40;99.90
45643;DHT22;31358;46.008;11.144;2023-12-20T03:13:16;3.90;99.90
45643;DHT22;31358;46.008;11.144;2023-12-20T03:15:42;3.90;99.90
45643;DHT22;31358;46.008;11.144;2023-12-20T03:18:08;3.80;99.90
45643;DHT22;31358;46.008;11.144;2023-12-20T03:20:33;3.40;99.90
45643;DHT22;31358;46.008;11.144;2023-12-20T03:23:02;3.50;99.90
45643;DHT22;31358;46.008;11.144;2023-12-20T03:25:28;3.60;99.90
45643;DHT22;31358;46.008;11.144;2023-12-20T03:27:54;3.90;99.90
45643;DHT22;31358;46.008;11.144;2023-12-20T03:30:20;3.60;99.90
45643;DHT22;31358;46.008;11.144;2023-12-20T03:32:47;3.30;99.90
45643;DHT22;31358;46.008;11.144;2023-12-20T03:35:12;3.20;99.90
45643;DHT22;31358;46.008;11.144;2023-12-20T03:37:38;3.30;99.90
45643;DHT22;31358;46.008;11.144;2023-12-20T03:40:04;3.40;99.90
45643;DHT22;31358;46.008;11.144;2023-12-20T03:42:30;3.40;99.90
45643;DHT22;31358;46.008;11.144;2023-12-20T03:44:56;3.40;99.90
45643;DHT22;31358;46.008;11.144;2023-12-20T03:47:22;3.30;99.90
45643;DHT22;31358;46.008;11.144;2023-12-20T03:49:48;3.20;99.90
45643;DHT22;31358;46.008;11.144;2023-12-20T03:52:13;3.20;99.90
45643;DHT22;31358;46.008;11.144;2023-12-20T03:54:40;3.10;99.90
45643;DHT22;31358;46.008;11.144;2023-12-20T03:57:07;3.10;99.90
45643;DHT22;31358;46.008;11.144;2023-12-20T03:59:37;3.20;99.90
45643;DHT22;31358;46.008;11.144;2023-12-20T04:02:03;3.30;99.90
45643;DHT22;31358;46.008;11.144;2023-12-20T04:04:29;3.30;99.90
45643;DHT22;31358;46.008;11.144;2023-12-20T04:06:55;3.40;99.90
45643;DHT22;31358;46.008;11.144;2023-12-20T04:09:20;3.20;99.90
45643;DHT22;31358;46.008;11.144;2023-12-20T04:11:46;3.30;99.90
45643;DHT22;31358;46.008;11.144;2023-12-20T04:14:12;3.30;99.90
45643;DHT22;31358;46.008;11.144;2023-12-20T04:16:37;3.40;99.90
45643;DHT22;31358;46.008;11.144;2023-12-20T04:19:04;3.40;99.90
45643;DHT22;31358;46.008;11.144;2023-12-20T04:21:30;3.20;99.90
45643;DHT22;31358;46.008;11.144;2023-12-20T04:23:56;3.20;99.90
45643;DHT22;31358;46.008;11.144;2023-12-20T04:26:22;3.20;99.90
45643;DHT22;31358;46.008;11.144;2023-12-20T04:28:47;3.20;99.90
45643;DHT22;31358;46.008;11.144;2023-12-20T04:31:13;3.30;99.90
45643;DHT22;31358;46.008;11.144;2023-12-20T04:33:39;3.40;99.90
45643;DHT22;31358;46.008;11.144;2023-12-20T04:36:05;3.50;99.90
45643;DHT22;31358;46.008;11.144;2023-12-20T04:38:30;3.60;99.90
45643;DHT22;31358;46.008;11.144;2023-12-20T04:40:56;3.60;99.90
45643;DHT22;31358;46.008;11.144;2023-12-20T04:43:22;3.50;99.90
45643;DHT22;31358;46.008;11.144;2023-12-20T04:45:48;3.50;99.90
45643;DHT22;31358;46.008;11.144;2023-12-20T04:48:13;3.50;99.90
45643;DHT22;31358;46.008;11.144;2023-12-20T04:50:39;3.50;99.90
45643;DHT22;31358;46.008;11.144;2023-12-20T04:53:05;3.50;99.90
45643;DHT22;31358;46.008;11.144;2023-12-20T04:55:30;3.50;99.90
45643;DHT22;31358;46.008;11.144;2023-12-20T04:57:56;3.40;99.90
45643;DHT22;31358;46.008;11.144;2023-12-20T05:00:22;3.40;99.90
45643;DHT22;31358;46.008;11.144;2023-12-20T05:02:47;3.40;99.90
45643;DHT22;31358;46.008;11.144;2023-12-20T05:05:13;3.30;99.90
45643;DHT22;31358;46.008;11.144;2023-12-20T05:07:40;3.40;99.90
45643;DHT22;31358;46.008;11.144;2023-12-20T05:10:06;3.40;99.90
45643;DHT22;31358;46.008;11.144;2023-12-20T05:12:33;3.40;99.90
45643;DHT22;31358;46.008;11.144;2023-12-20T05:14:59;3.30;99.90
45643;DHT22;31358;46.008;11.144;2023-12-20T05:17:25;3.30;99.90
45643;DHT22;31358;46.008;11.144;2023-12-20T05:19:51;3.30;99.90
45643;DHT22;31358;46.008;11.144;2023-12-20T05:22:18;3.30;99.90
45643;DHT22;31358;46.008;11.144;2023-12-20T05:24:44;3.00;99.90
45643;DHT22;31358;46.008;11.144;2023-12-20T05:27:09;3.10;99.90
45643;DHT22;31358;46.008;11.144;2023-12-20T05:29:35;3.40;99.90
45643;DHT22;31358;46.008;11.144;2023-12-20T05:32:01;3.50;99.90
45643;DHT22;31358;46.008;11.144;2023-12-20T05:34:26;3.60;99.90
45643;DHT22;31358;46.008;11.144;2023-12-20T05:36:52;3.40;99.90
45643;DHT22;31358;46.008;11.144;2023-12-20T05:39:17;3.30;99.90
45643;DHT22;31358;46.008;11.144;2023-12-20T05:41:43;3.30;99.90
45643;DHT22;31358;46.008;11.144;2023-12-20T05:44:09;3.20;99.90
45643;DHT22;31358;46.008;11.144;2023-12-20T05:46:35;3.10;99.90
45643;DHT22;31358;46.008;11.144;2023-12-20T05:49:01;3.10;99.90
45643;DHT22;31358;46.008;11.144;2023-12-20T05:51:28;3.10;99.90
45643;DHT22;31358;46.008;11.144;2023-12-20T05:53:53;3.40;99.90
45643;DHT22;31358;46.008;11.144;2023-12-20T05:56:19;3.50;99.90
45643;DHT22;31358;46.008;11.144;2023-12-20T05:58:44;3.50;99.90
45643;DHT22;31358;46.008;11.144;2023-12-20T06:01:10;3.30;99.90
45643;DHT22;31358;46.008;11.144;2023-12-20T06:03:36;3.40;99.90
45643;DHT22;31358;46.008;11.144;2023-12-20T06:06:08;3.40;99.90
45643;DHT22;31358;46.008;11.144;2023-12-20T06:08:34;3.30;99.90
45643;DHT22;31358;46.008;11.144;2023-12-20T06:10:59;3.40;99.90
45643;DHT22;31358;46.008;11.144;2023-12-20T06:13:25;3.30;99.90
45643;DHT22;31358;46.008;11.144;2023-12-20T06:15:54;3.40;99.90
45643;DHT22;31358;46.008;11.144;2023-12-20T06:18:19;3.70;99.90
45643;DHT22;31358;46.008;11.144;2023-12-20T06:20:45;3.80;99.90
45643;DHT22;31358;46.008;11.144;2023-12-20T06:23:11;3.80;99.90
45643;DHT22;31358;46.008;11.144;2023-12-20T06:25:36;3.70;99.90
45643;DHT22;31358;46.008;11.144;2023-12-20T06:28:02;3.70;99.90
45643;DHT22;31358;46.008;11.144;2023-12-20T06:30:28;3.80;99.90
45643;DHT22;31358;46.008;11.144;2023-12-20T06:32:54;3.80;99.90
45643;DHT22;31358;46.008;11.144;2023-12-20T06:35:22;3.60;99.90
45643;DHT22;31358;46.008;11.144;2023-12-20T06:37:48;3.30;99.90
45643;DHT22;31358;46.008;11.144;2023-12-20T06:40:14;3.20;99.90
45643;DHT22;31358;46.008;11.144;2023-12-20T06:42:39;3.30;99.90
45643;DHT22;31358;46.008;11.144;2023-12-20T06:45:05;3.40;99.90
45643;DHT22;31358;46.008;11.144;2023-12-20T06:47:31;3.30;99.90
45643;DHT22;31358;46.008;11.144;2023-12-20T06:49:57;3.40;99.90
45643;DHT22;31358;46.008;11.144;2023-12-20T06:52:22;3.40;99.90
45643;DHT22;31358;46.008;11.144;2023-12-20T06:54:48;3.50;99.90
45643;DHT22;31358;46.008;11.144;2023-12-20T06:57:14;3.70;99.90
45643;DHT22;31358;46.008;11.144;2023-12-20T06:59:40;3.70;99.90
45643;DHT22;31358;46.008;11.144;2023-12-20T07:02:06;3.70;99.90
45643;DHT22;31358;46.008;11.144;2023-12-20T07:04:32;3.70;99.90
45643;DHT22;31358;46.008;11.144;2023-12-20T07:06:57;3.60;99.90
45643;DHT22;31358;46.008;11.144;2023-12-20T07:09:26;3.80;99.90
45643;DHT22;31358;46.008;11.144;2023-12-20T07:11:52;3.80;99.90
45643;DHT22;31358;46.008;11.144;2023-12-20T07:14:18;3.80;99.90
45643;DHT22;31358;46.008;11.144;2023-12-20T07:16:44;3.70;99.90
45643;DHT22;31358;46.008;11.144;2023-12-20T07:19:09;3.40;99.90
45643;DHT22;31358;46.008;11.144;2023-12-20T07:21:35;3.20;99.90
45643;DHT22;31358;46.008;11.144;2023-12-20T07:24:01;3.20;99.90
45643;DHT22;31358;46.008;11.144;2023-12-20T07:26:26;3.40;99.90
45643;DHT22;31358;46.008;11.144;2023-12-20T07:28:52;3.30;99.90
45643;DHT22;31358;46.008;11.144;2023-12-20T07:31:18;3.40;99.90
45643;DHT22;31358;46.008;11.144;2023-12-20T07:33:43;3.70;99.90
45643;DHT22;31358;46.008;11.144;2023-12-20T07:36:09;3.50;99.90
45643;DHT22;31358;46.008;11.144;2023-12-20T07:38:35;3.70;99.90
45643;DHT22;31358;46.008;11.144;2023-12-20T07:41:01;3.60;99.90
45643;DHT22;31358;46.008;11.144;2023-12-20T07:43:27;3.70;99.90
45643;DHT22;31358;46.008;11.144;2023-12-20T07:45:52;3.80;99.90
45643;DHT22;31358;46.008;11.144;2023-12-20T07:48:18;4.00;99.90
45643;DHT22;31358;46.008;11.144;2023-12-20T07:50:43;4.00;99.90
45643;DHT22;31358;46.008;11.144;2023-12-20T07:53:09;4.10;99.90
45643;DHT22;31358;46.008;11.144;2023-12-20T07:55:35;4.20;99.90
45643;DHT22;31358;46.008;11.144;2023-12-20T07:58:01;4.30;99.90
45643;DHT22;31358;46.008;11.144;2023-12-20T08:00:27;4.40;99.90
45643;DHT22;31358;46.008;11.144;2023-12-20T08:02:52;4.50;99.90
45643;DHT22;31358;46.008;11.144;2023-12-20T08:05:18;4.60;99.90
45643;DHT22;31358;46.008;11.144;2023-12-20T08:07:44;4.60;99.90
45643;DHT22;31358;46.008;11.144;2023-12-20T08:10:10;4.80;99.90
45643;DHT22;31358;46.008;11.144;2023-12-20T08:12:36;4.90;99.90
45643;DHT22;31358;46.008;11.144;2023-12-20T08:15:02;5.00;99.90
45643;DHT22;31358;46.008;11.144;2023-12-20T08:17:29;5.00;99.90
45643;DHT22;31358;46.008;11.144;2023-12-20T08:19:55;4.70;99.90
45643;DHT22;31358;46.008;11.144;2023-12-20T08:22:21;4.30;99.90
45643;DHT22;31358;46.008;11.144;2023-12-20T08:24:46;4.10;99.90
45643;DHT22;31358;46.008;11.144;2023-12-20T08:27:12;3.90;99.90
45643;DHT22;31358;46.008;11.144;2023-12-20T08:29:38;4.00;99.90
45643;DHT22;31358;46.008;11.144;2023-12-20T08:32:04;4.00;99.90
45643;DHT22;31358;46.008;11.144;2023-12-20T08:34:30;4.10;99.90
45643;DHT22;31358;46.008;11.144;2023-12-20T08:36:55;4.10;99.90
45643;DHT22;31358;46.008;11.144;2023-12-20T08:39:21;3.80;99.90
45643;DHT22;31358;46.008;11.144;2023-12-20T08:41:47;3.90;99.90
45643;DHT22;31358;46.008;11.144;2023-12-20T08:44:12;4.00;99.90
45643;DHT22;31358;46.008;11.144;2023-12-20T08:46:38;4.20;99.90
45643;DHT22;31358;46.008;11.144;2023-12-20T08:49:04;4.00;99.90
45643;DHT22;31358;46.008;11.144;2023-12-20T08:51:30;4.00;99.90
45643;DHT22;31358;46.008;11.144;2023-12-20T08:53:56;4.40;99.90
45643;DHT22;31358;46.008;11.144;2023-12-20T08:56:21;4.80;99.90
45643;DHT22;31358;46.008;11.144;2023-12-20T08:58:47;4.80;99.90
45643;DHT22;31358;46.008;11.144;2023-12-20T09:01:13;4.50;99.90
45643;DHT22;31358;46.008;11.144;2023-12-20T09:03:39;4.60;99.90
45643;DHT22;31358;46.008;11.144;2023-12-20T09:06:06;5.10;99.90
45643;DHT22;31358;46.008;11.144;2023-12-20T09:08:32;5.40;99.90
45643;DHT22;31358;46.008;11.144;2023-12-20T09:10:57;5.50;99.80
45643;DHT22;31358;46.008;11.144;2023-12-20T09:13:23;5.40;99.90
45643;DHT22;31358;46.008;11.144;2023-12-20T09:15:57;4.90;99.90
45643;DHT22;31358;46.008;11.144;2023-12-20T09:18:23;4.70;99.90
45643;DHT22;31358;46.008;11.144;2023-12-20T09:20:49;4.60;99.90
45643;DHT22;31358;46.008;11.144;2023-12-20T09:23:14;4.60;99.90
45643;DHT22;31358;46.008;11.144;2023-12-20T09:25:40;4.70;99.90
45643;DHT22;31358;46.008;11.144;2023-12-20T09:28:06;4.80;99.90
45643;DHT22;31358;46.008;11.144;2023-12-20T09:30:31;5.00;99.90
45643;DHT22;31358;46.008;11.144;2023-12-20T09:32:57;5.10;99.90
45643;DHT22;31358;46.008;11.144;2023-12-20T09:35:23;5.30;99.90
45643;DHT22;31358;46.008;11.144;2023-12-20T09:37:49;5.40;99.90
45643;DHT22;31358;46.008;11.144;2023-12-20T09:40:18;5.50;99.90
45643;DHT22;31358;46.008;11.144;2023-12-20T09:45:19;5.60;99.90
45643;DHT22;31358;46.008;11.144;2023-12-20T09:47:45;5.50;99.90
45643;DHT22;31358;46.008;11.144;2023-12-20T09:50:12;5.50;99.90
45643;DHT22;31358;46.008;11.144;2023-12-20T09:52:39;5.40;99.90
45643;DHT22;31358;46.008;11.144;2023-12-20T09:55:06;5.50;99.90
45643;DHT22;31358;46.008;11.144;2023-12-20T09:57:33;5.70;99.90
45643;DHT22;31358;46.008;11.144;2023-12-20T09:59:59;5.60;99.90
45643;DHT22;31358;46.008;11.144;2023-12-20T10:02:25;5.60;99.90
45643;DHT22;31358;46.008;11.144;2023-12-20T10:04:55;5.80;99.90
45643;DHT22;31358;46.008;11.144;2023-12-20T10:07:21;5.70;99.90
45643;DHT22;31358;46.008;11.144;2023-12-20T10:09:48;5.50;99.90
45643;DHT22;31358;46.008;11.144;2023-12-20T10:12:14;5.40;99.90
45643;DHT22;31358;46.008;11.144;2023-12-20T10:14:40;5.50;99.90
45643;DHT22;31358;46.008;11.144;2023-12-20T10:17:06;5.50;99.90
45643;DHT22;31358;46.008;11.144;2023-12-20T10:19:32;5.50;99.90
45643;DHT22;31358;46.008;11.144;2023-12-20T10:22:04;5.50;99.90
45643;DHT22;31358;46.008;11.144;2023-12-20T10:24:30;5.50;99.90
45643;DHT22;31358;46.008;11.144;2023-12-20T10:27:06;5.40;99.90
45643;DHT22;31358;46.008;11.144;2023-12-20T10:29:40;5.50;99.90
45643;DHT22;31358;46.008;11.144;2023-12-20T10:35:01;5.50;99.90
45643;DHT22;31358;46.008;11.144;2023-12-20T10:37:28;5.50;99.90
45643;DHT22;31358;46.008;11.144;2023-12-20T10:39:54;5.50;99.90
45643;DHT22;31358;46.008;11.144;2023-12-20T10:42:26;5.60;99.90
45643;DHT22;31358;46.008;11.144;2023-12-20T10:44:52;5.60;99.90
45643;DHT22;31358;46.008;11.144;2023-12-20T10:47:19;5.50;99.90
45643;DHT22;31358;46.008;11.144;2023-12-20T10:49:46;5.60;99.90
45643;DHT22;31358;46.008;11.144;2023-12-20T10:52:12;5.60;99.90
45643;DHT22;31358;46.008;11.144;2023-12-20T10:54:41;5.60;99.90
45643;DHT22;31358;46.008;11.144;2023-12-20T10:57:07;5.80;99.90
45643;DHT22;31358;46.008;11.144;2023-12-20T10:59:35;6.00;99.90
45643;DHT22;31358;46.008;11.144;2023-12-20T11:02:03;6.10;99.80
45643;DHT22;31358;46.008;11.144;2023-12-20T11:04:50;6.30;99.10
45643;DHT22;31358;46.008;11.144;2023-12-20T11:10:21;6.60;98.90
45643;DHT22;31358;46.008;11.144;2023-12-20T11:13:35;6.40;99.90
45643;DHT22;31358;46.008;11.144;2023-12-20T11:15:52;6.00;99.90
45643;DHT22;31358;46.008;11.144;2023-12-20T11:18:18;5.90;99.90
45643;DHT22;31358;46.008;11.144;2023-12-20T11:20:44;5.90;99.90
45643;DHT22;31358;46.008;11.144;2023-12-20T11:23:10;5.80;99.90
45643;DHT22;31358;46.008;11.144;2023-12-20T11:26:08;5.90;99.90
45643;DHT22;31358;46.008;11.144;2023-12-20T11:28:33;6.00;99.90
45643;DHT22;31358;46.008;11.144;2023-12-20T11:31:02;6.00;99.90
45643;DHT22;31358;46.008;11.144;2023-12-20T11:33:35;6.10;99.90
45643;DHT22;31358;46.008;11.144;2023-12-20T11:36:01;6.20;99.90
45643;DHT22;31358;46.008;11.144;2023-12-20T11:38:37;6.20;99.90
45643;DHT22;31358;46.008;11.144;2023-12-20T11:41:05;6.30;99.90
45643;DHT22;31358;46.008;11.144;2023-12-20T11:43:38;6.30;99.90
45643;DHT22;31358;46.008;11.144;2023-12-20T11:46:08;6.30;99.90
45643;DHT22;31358;46.008;11.144;2023-12-20T11:48:36;6.40;99.90
45643;DHT22;31358;46.008;11.144;2023-12-20T11:51:02;6.50;99.90
45643;DHT22;31358;46.008;11.144;2023-12-20T11:53:29;6.30;99.90
45643;DHT22;31358;46.008;11.144;2023-12-20T11:55:56;6.40;99.90
45643;DHT22;31358;46.008;11.144;2023-12-20T11:58:22;6.40;99.90
45643;DHT22;31358;46.008;11.144;2023-12-20T12:00:49;6.30;99.90
45643;DHT22;31358;46.008;11.144;2023-12-20T12:03:15;6.30;99.90
45643;DHT22;31358;46.008;11.144;2023-12-20T12:05:41;6.40;99.90
45643;DHT22;31358;46.008;11.144;2023-12-20T12:08:07;6.50;99.90
45643;DHT22;31358;46.008;11.144;2023-12-20T12:10:33;6.70;99.90
45643;DHT22;31358;46.008;11.144;2023-12-20T12:12:59;6.80;99.90
45643;DHT22;31358;46.008;11.144;2023-12-20T12:15:26;6.80;99.90
45643;DHT22;31358;46.008;11.144;2023-12-20T12:17:55;6.80;99.80
45643;DHT22;31358;46.008;11.144;2023-12-20T12:20:21;6.90;99.90
45643;DHT22;31358;46.008;11.144;2023-12-20T12:23:01;7.00;99.30
45643;DHT22;31358;46.008;11.144;2023-12-20T12:25:28;6.90;99.30
45643;DHT22;31358;46.008;11.144;2023-12-20T12:27:53;6.90;99.00
45643;DHT22;31358;46.008;11.144;2023-12-20T12:30:19;6.90;99.30
45643;DHT22;31358;46.008;11.144;2023-12-20T12:32:45;6.90;99.50
45643;DHT22;31358;46.008;11.144;2023-12-20T12:35:11;6.80;99.60
45643;DHT22;31358;46.008;11.144;2023-12-20T12:37:40;6.70;99.50
45643;DHT22;31358;46.008;11.144;2023-12-20T12:40:11;6.70;99.90
45643;DHT22;31358;46.008;11.144;2023-12-20T12:42:37;6.60;99.90
45643;DHT22;31358;46.008;11.144;2023-12-20T12:45:03;6.60;99.90
45643;DHT22;31358;46.008;11.144;2023-12-20T12:47:30;6.40;99.90
45643;DHT22;31358;46.008;11.144;2023-12-20T12:49:56;6.40;99.90
45643;DHT22;31358;46.008;11.144;2023-12-20T12:52:22;6.40;99.90
45643;DHT22;31358;46.008;11.144;2023-12-20T12:54:48;6.40;99.90
45643;DHT22;31358;46.008;11.144;2023-12-20T12:57:15;6.30;99.90
45643;DHT22;31358;46.008;11.144;2023-12-20T12:59:45;6.30;99.90
45643;DHT22;31358;46.008;11.144;2023-12-20T13:02:14;6.30;99.90
45643;DHT22;31358;46.008;11.144;2023-12-20T13:04:40;6.30;99.90
45643;DHT22;31358;46.008;11.144;2023-12-20T13:07:07;6.30;99.90
45643;DHT22;31358;46.008;11.144;2023-12-20T13:09:33;6.20;99.90
45643;DHT22;31358;46.008;11.144;2023-12-20T13:11:59;6.10;99.90
45643;DHT22;31358;46.008;11.144;2023-12-20T13:14:25;6.00;99.90
45643;DHT22;31358;46.008;11.144;2023-12-20T13:16:50;6.00;99.90
45643;DHT22;31358;46.008;11.144;2023-12-20T13:19:16;6.10;99.90
45643;DHT22;31358;46.008;11.144;2023-12-20T13:21:42;6.20;99.90
45643;DHT22;31358;46.008;11.144;2023-12-20T13:24:07;6.30;99.90
45643;DHT22;31358;46.008;11.144;2023-12-20T13:26:33;6.40;99.90
45643;DHT22;31358;46.008;11.144;2023-12-20T13:28:59;6.40;99.90
45643;DHT22;31358;46.008;11.144;2023-12-20T13:31:24;6.50;99.90
45643;DHT22;31358;46.008;11.144;2023-12-20T13:33:50;6.70;99.90
45643;DHT22;31358;46.008;11.144;2023-12-20T13:36:18;6.90;99.90
45643;DHT22;31358;46.008;11.144;2023-12-20T13:38:44;6.90;99.90
45643;DHT22;31358;46.008;11.144;2023-12-20T13:41:10;6.90;99.60
45643;DHT22;31358;46.008;11.144;2023-12-20T13:43:35;7.00;99.70
45643;DHT22;31358;46.008;11.144;2023-12-20T13:46:01;7.00;99.20
45643;DHT22;31358;46.008;11.144;2023-12-20T13:48:27;7.30;99.20
45643;DHT22;31358;46.008;11.144;2023-12-20T13:50:53;7.30;98.70
45643;DHT22;31358;46.008;11.144;2023-12-20T13:53:20;7.30;98.80
45643;DHT22;31358;46.008;11.144;2023-12-20T13:55:45;7.30;99.00
45643;DHT22;31358;46.008;11.144;2023-12-20T13:58:12;7.30;98.90
45643;DHT22;31358;46.008;11.144;2023-12-20T14:00:38;7.30;99.20
45643;DHT22;31358;46.008;11.144;2023-12-20T14:03:04;7.40;99.00
45643;DHT22;31358;46.008;11.144;2023-12-20T14:05:30;7.30;98.90
45643;DHT22;31358;46.008;11.144;2023-12-20T14:07:57;7.40;99.10
45643;DHT22;31358;46.008;11.144;2023-12-20T14:10:25;7.40;98.60
45643;DHT22;31358;46.008;11.144;2023-12-20T14:12:54;7.50;98.30
45643;DHT22;31358;46.008;11.144;2023-12-20T14:15:20;7.60;98.10
45643;DHT22;31358;46.008;11.144;2023-12-20T14:17:46;7.60;98.00
45643;DHT22;31358;46.008;11.144;2023-12-20T14:20:12;7.60;98.00
45643;DHT22;31358;46.008;11.144;2023-12-20T14:22:41;7.60;97.60
45643;DHT22;31358;46.008;11.144;2023-12-20T14:25:15;7.60;98.00
45643;DHT22;31358;46.008;11.144;2023-12-20T14:27:42;7.40;99.00
45643;DHT22;31358;46.008;11.144;2023-12-20T14:30:10;7.40;99.10
45643;DHT22;31358;46.008;11.144;2023-12-20T14:32:37;7.30;99.90
45643;DHT22;31358;46.008;11.144;2023-12-20T14:35:08;7.30;99.60
45643;DHT22;31358;46.008;11.144;2023-12-20T14:37:37;7.10;99.80
45643;DHT22;31358;46.008;11.144;2023-12-20T14:40:07;6.90;99.90
45643;DHT22;31358;46.008;11.144;2023-12-20T14:42:36;6.90;99.90
45643;DHT22;31358;46.008;11.144;2023-12-20T14:45:02;6.80;99.80
45643;DHT22;31358;46.008;11.144;2023-12-20T14:47:28;6.70;99.90
45643;DHT22;31358;46.008;11.144;2023-12-20T14:49:54;6.60;99.90
45643;DHT22;31358;46.008;11.144;2023-12-20T14:52:19;6.50;99.90
45643;DHT22;31358;46.008;11.144;2023-12-20T14:54:45;6.40;99.90
45643;DHT22;31358;46.008;11.144;2023-12-20T14:57:11;6.50;99.90
45643;DHT22;31358;46.008;11.144;2023-12-20T14:59:36;6.40;99.90
45643;DHT22;31358;46.008;11.144;2023-12-20T15:02:02;6.20;99.90
45643;DHT22;31358;46.008;11.144;2023-12-20T15:04:30;6.10;99.90
45643;DHT22;31358;46.008;11.144;2023-12-20T15:06:56;6.00;99.90
45643;DHT22;31358;46.008;11.144;2023-12-20T15:09:22;6.10;99.90
45643;DHT22;31358;46.008;11.144;2023-12-20T15:11:47;6.10;99.90
45643;DHT22;31358;46.008;11.144;2023-12-20T15:14:13;6.10;99.90
45643;DHT22;31358;46.008;11.144;2023-12-20T15:16:46;6.00;99.90
45643;DHT22;31358;46.008;11.144;2023-12-20T15:19:13;5.90;99.90
45643;DHT22;31358;46.008;11.144;2023-12-20T15:21:38;5.90;99.90
45643;DHT22;31358;46.008;11.144;2023-12-20T15:24:08;5.90;99.90
45643;DHT22;31358;46.008;11.144;2023-12-20T15:26:41;5.90;99.90
45643;DHT22;31358;46.008;11.144;2023-12-20T15:29:07;6.00;99.90
45643;DHT22;31358;46.008;11.144;2023-12-20T15:31:35;6.20;98.90
45643;DHT22;31358;46.008;11.144;2023-12-20T15:34:01;6.50;98.30